Time;durP1;ratioP1;P1;durP2;ratioP2;P2;SDS_P1;SDS_P2;PMS_P1;PMS_P2;Temp;Humidity;BMP_temperature;BMP_pressure;BME280_temperature;BME280_humidity;BME280_pressure;Samples;Min_cycle;Max_cycle;Signal;HPM_P1;HPM_P2
2022/04/30 00:01:06;;;;;;;7.97;5.57;;;;;;;9.81;100.00;99454.69;5032906;28;20099;-77
2022/04/30 00:03:33;;;;;;;7.97;4.88;;;;;;;9.83;100.00;99459.94;5023086;28;20046;-77
2022/04/30 00:05:59;;;;;;;7.70;4.78;;;;;;;9.92;100.00;99464.34;5019164;28;20061;-77
2022/04/30 00:08:26;;;;;;;6.65;5.32;;;;;;;9.69;100.00;99421.63;5025903;28;20417;-76
2022/04/30 00:10:53;;;;;;;5.10;4.45;;;;;;;9.91;100.00;99465.38;5029630;28;20095;-77
2022/04/30 00:13:20;;;;;;;8.82;4.97;;;;;;;9.87;100.00;99451.28;5025755;28;20052;-77
2022/04/30 00:15:48;;;;;;;8.25;5.18;;;;;;;9.63;100.00;99425.03;5031142;28;20492;-76
2022/04/30 00:18:15;;;;;;;6.78;5.18;;;;;;;9.65;100.00;99436.59;5029119;28;20045;-77
2022/04/30 00:20:45;;;;;;;5.97;4.70;;;;;;;9.64;100.00;99428.63;5029206;28;20486;-76
2022/04/30 00:23:19;;;;;;;7.82;4.63;;;;;;;9.74;100.00;99445.56;5032969;28;20053;-76
2022/04/30 00:25:46;;;;;;;9.85;5.70;;;;;;;9.74;100.00;99451.00;5033724;28;20050;-76
2022/04/30 00:28:13;;;;;;;12.10;5.57;;;;;;;10.07;100.00;99480.78;5033677;28;20409;-76
2022/04/30 00:30:41;;;;;;;7.90;5.55;;;;;;;10.10;100.00;99475.84;5032862;28;20560;-76
2022/04/30 00:33:10;;;;;;;11.38;6.30;;;;;;;9.93;100.00;99444.31;5032514;28;20460;-78
2022/04/30 00:35:36;;;;;;;10.05;6.30;;;;;;;9.93;100.00;99449.75;5033414;28;20148;-78
2022/04/30 00:38:03;;;;;;;8.05;5.85;;;;;;;9.90;100.00;99450.94;5033444;28;20673;-76
2022/04/30 00:40:30;;;;;;;8.63;6.13;;;;;;;9.89;100.00;99459.25;5033066;28;20049;-76
2022/04/30 00:42:56;;;;;;;10.98;5.97;;;;;;;9.63;100.00;99432.34;5030628;28;20059;-76
2022/04/30 00:45:23;;;;;;;8.98;5.93;;;;;;;9.77;100.00;99450.66;5030808;28;20072;-77
2022/04/30 00:47:49;;;;;;;8.02;5.82;;;;;;;9.88;100.00;99458.41;5024548;28;20406;-77
2022/04/30 00:50:18;;;;;;;11.63;6.47;;;;;;;9.78;100.00;99454.22;5030980;28;20457;-79
2022/04/30 00:52:46;;;;;;;8.27;5.75;;;;;;;9.84;100.00;99448.09;5030114;28;20136;-76
2022/04/30 00:55:13;;;;;;;8.30;5.60;;;;;;;9.63;100.00;99429.63;5030836;28;20131;-77
2022/04/30 00:57:44;;;;;;;7.65;6.22;;;;;;;9.68;100.00;99435.38;5023495;28;20057;-79
2022/04/30 01:00:12;;;;;;;11.18;5.78;;;;;;;9.79;100.00;99459.47;5029720;28;20409;-77
2022/04/30 01:02:39;;;;;;;9.45;5.72;;;;;;;9.85;100.00;99463.38;5024225;28;20434;-76
2022/04/30 01:05:06;;;;;;;7.30;5.38;;;;;;;9.81;100.00;99449.25;5030282;28;20053;-77
2022/04/30 01:07:36;;;;;;;8.05;6.32;;;;;;;9.93;100.00;99468.75;5029337;28;20051;-77
2022/04/30 01:10:03;;;;;;;9.60;6.35;;;;;;;9.73;100.00;99438.44;5025924;28;20037;-77
2022/04/30 01:12:31;;;;;;;7.78;6.25;;;;;;;9.64;100.00;99451.16;5027963;28;20052;-77
2022/04/30 01:14:58;;;;;;;7.45;5.75;;;;;;;9.72;100.00;99456.56;5023447;28;20056;-76
2022/04/30 01:17:25;;;;;;;11.18;5.88;;;;;;;9.81;100.00;99471.00;5024181;28;20049;-77
2022/04/30 01:19:52;;;;;;;8.27;6.43;;;;;;;9.67;100.00;99441.84;5025852;28;20489;-79
2022/04/30 01:22:27;;;;;;;7.95;6.32;;;;;;;9.66;100.00;99429.28;5027837;28;20075;-79
2022/04/30 01:24:56;;;;;;;9.55;6.55;;;;;;;9.84;100.00;99454.34;5022626;28;20045;-78
2022/04/30 01:27:25;;;;;;;8.50;6.00;;;;;;;9.74;100.00;99432.00;5027845;28;20054;-78
2022/04/30 01:29:52;;;;;;;7.78;5.60;;;;;;;9.65;100.00;99425.72;5028211;28;20053;-78
2022/04/30 01:37:56;;;;;;;6.60;5.47;;;;;;;9.70;100.00;99457.78;5026815;28;20102;-78
2022/04/30 01:40:24;;;;;;;9.23;6.82;;;;;;;9.60;100.00;99430.81;5027638;28;20045;-78
2022/04/30 01:42:52;;;;;;;9.10;7.03;;;;;;;9.72;100.00;99440.28;5028061;28;20053;-78
2022/04/30 01:45:19;;;;;;;9.65;6.22;;;;;;;9.67;100.00;99434.53;5024219;28;20057;-78
2022/04/30 01:47:47;;;;;;;9.55;6.50;;;;;;;9.78;100.00;99454.22;5026480;28;20048;-76
2022/04/30 01:50:14;;;;;;;9.88;6.45;;;;;;;9.49;100.00;99407.59;5022092;28;20798;-78
2022/04/30 01:52:41;;;;;;;10.25;6.72;;;;;;;9.52;100.00;99420.81;5027338;28;20152;-76
2022/04/30 01:55:10;;;;;;;10.68;6.70;;;;;;;9.63;100.00;99440.50;5027943;28;20504;-78
2022/04/30 01:57:40;;;;;;;8.50;6.50;;;;;;;9.65;100.00;99441.16;5029025;28;20056;-76
2022/04/30 02:00:09;;;;;;;10.68;6.63;;;;;;;9.76;100.00;99432.66;5027366;28;20057;-78
2022/04/30 02:02:36;;;;;;;13.15;8.02;;;;;;;9.59;100.00;99406.56;5021535;28;20041;-78
2022/04/30 02:05:06;;;;;;;11.00;7.68;;;;;;;9.74;100.00;99427.41;5023276;28;20397;-76
2022/04/30 02:07:37;;;;;;;9.85;6.63;;;;;;;9.68;100.00;99406.38;5027114;28;20041;-76
2022/04/30 02:10:07;;;;;;;9.30;6.50;;;;;;;9.63;100.00;99410.63;5023125;28;20046;-76
2022/04/30 02:12:35;;;;;;;10.98;7.35;;;;;;;9.41;100.00;99383.19;5023310;28;20049;-76
2022/04/30 02:15:04;;;;;;;9.95;7.18;;;;;;;9.37;100.00;99385.38;5026058;28;20493;-76
2022/04/30 02:17:31;;;;;;;11.45;7.78;;;;;;;9.46;100.00;99412.53;5027800;28;20133;-78
2022/04/30 02:22:45;;;;;;;10.45;7.63;;;;;;;9.33;100.00;99403.06;5018409;28;20555;-78
2022/04/30 02:25:13;;;;;;;11.18;7.60;;;;;;;9.14;100.00;99377.13;5029381;28;20264;-78
2022/04/30 02:27:41;;;;;;;11.85;8.15;;;;;;;9.41;100.00;99412.19;5028366;28;20049;-78
2022/04/30 02:30:11;;;;;;;11.90;8.00;;;;;;;9.36;100.00;99410.84;5025290;28;20568;-78
2022/04/30 02:32:41;;;;;;;;;;;;;;;9.49;100.00;99428.47;5029636;28;20132;-76
2022/04/30 02:35:09;;;;;;;16.05;8.07;;;;;;;9.38;100.00;99402.53;5028531;28;19967;-79
2022/04/30 02:37:36;;;;;;;12.85;8.23;;;;;;;9.51;100.00;99412.84;5029867;28;20057;-78
2022/04/30 02:40:03;;;;;;;10.27;8.10;;;;;;;9.55;100.00;99430.50;5027565;28;20061;-78
2022/04/30 02:42:29;;;;;;;11.23;8.45;;;;;;;9.36;100.00;99400.00;5028325;28;20041;-76
2022/04/30 02:44:56;;;;;;;13.05;8.75;;;;;;;9.46;100.00;99412.53;5031840;28;20054;-78
2022/04/30 02:47:24;;;;;;;16.23;8.43;;;;;;;9.19;100.00;99379.31;5032172;28;20053;-76
2022/04/30 02:49:51;;;;;;;10.50;8.18;;;;;;;9.11;100.00;99392.88;5031340;28;20064;-78
2022/04/30 02:52:17;;;;;;;10.13;7.93;;;;;;;9.21;100.00;99410.69;5027461;28;20069;-76
2022/04/30 02:54:44;;;;;;;13.13;7.40;;;;;;;8.99;100.00;99405.94;5031424;28;20060;-78
2022/04/30 02:57:10;;;;;;;10.48;7.90;;;;;;;8.92;100.00;99391.34;5029601;28;20048;-76
2022/04/30 02:59:54;;;;;;;15.45;8.80;;;;;;;8.99;100.00;99395.94;5028832;28;20073;-78
2022/04/30 03:02:21;;;;;;;11.18;8.32;;;;;;;9.12;100.00;99414.41;5030223;28;20056;-75
2022/04/30 03:04:51;;;;;;;16.80;8.50;;;;;;;9.04;100.00;99398.97;5032019;28;20111;-78
2022/04/30 03:07:18;;;;;;;12.43;8.80;;;;;;;9.06;100.00;99411.53;5031931;28;20050;-78
2022/04/30 03:09:44;;;;;;;11.95;8.75;;;;;;;8.99;100.00;99401.34;5030018;28;20049;-76
2022/04/30 03:12:11;;;;;;;16.45;10.25;;;;;;;8.98;100.00;99396.94;5030415;28;20046;-78
2022/04/30 03:14:38;;;;;;;14.48;9.80;;;;;;;9.12;100.00;99417.13;5031886;28;20049;-76
2022/04/30 03:22:34;;;;;;;16.77;10.23;;;;;;;8.89;100.00;99397.94;5022234;28;20069;-78
2022/04/30 03:25:01;;;;;;;21.65;12.68;;;;;;;9.08;100.00;99413.06;5029545;28;20045;-78
2022/04/30 03:27:28;;;;;;;15.38;10.70;;;;;;;8.83;100.00;99385.91;5031293;28;20063;-78
2022/04/30 03:29:54;;;;;;;20.40;11.02;;;;;;;8.89;100.00;99376.25;5030589;28;20049;-78
2022/04/30 03:32:21;;;;;;;14.90;9.95;;;;;;;9.12;100.00;99409.00;5029382;28;20292;-78
2022/04/30 03:34:47;;;;;;;15.32;10.23;;;;;;;9.09;100.00;99408.47;5025403;28;20037;-78
2022/04/30 03:37:15;;;;;;;14.07;9.13;;;;;;;8.94;100.00;99403.72;5029545;28;20041;-78
2022/04/30 03:39:41;;;;;;;17.83;9.77;;;;;;;8.98;100.00;99420.50;5029820;28;20501;-78
2022/04/30 03:42:09;;;;;;;17.52;10.50;;;;;;;8.74;100.00;99383.38;5028809;28;20058;-78
2022/04/30 03:44:35;;;;;;;21.13;9.23;;;;;;;8.66;100.00;99385.06;5025824;28;20050;-78
2022/04/30 03:47:02;;;;;;;20.88;11.13;;;;;;;8.84;100.00;99409.31;5029902;28;20042;-78
2022/04/30 03:49:28;;;;;;;15.70;10.50;;;;;;;8.97;100.00;99429.66;5030962;28;20056;-78
2022/04/30 03:51:55;;;;;;;20.25;10.88;;;;;;;8.85;100.00;99405.59;5025131;28;20136;-78
2022/04/30 03:54:23;;;;;;;17.23;10.90;;;;;;;8.94;100.00;99416.44;5026042;28;20450;-78
2022/04/30 03:56:50;;;;;;;16.08;10.23;;;;;;;8.82;100.00;99399.63;5028194;28;20046;-78
2022/04/30 03:59:16;;;;;;;17.48;11.13;;;;;;;8.94;100.00;99422.72;5030757;28;20050;-78
2022/04/30 04:01:43;;;;;;;18.30;11.55;;;;;;;8.95;100.00;99426.25;5029930;28;20049;-78
2022/04/30 04:04:10;;;;;;;15.90;10.90;;;;;;;8.88;100.00;99414.38;5028454;28;20056;-78
2022/04/30 04:06:36;;;;;;;22.80;13.07;;;;;;;9.20;100.00;99443.41;5029969;28;20394;-78
2022/04/30 04:09:03;;;;;;;21.27;12.23;;;;;;;9.16;100.00;99433.91;5026384;28;20046;-78
2022/04/30 04:11:31;;;;;;;20.95;11.95;;;;;;;9.11;100.00;99420.84;5029447;28;20100;-78
2022/04/30 04:19:29;;;;;;;25.70;12.82;;;;;;;9.17;100.00;99432.91;5023513;28;20057;-78
2022/04/30 04:21:56;;;;;;;23.63;13.93;;;;;;;9.37;100.00;99449.66;5027623;28;20095;-78
2022/04/30 04:27:08;;;;;;;25.80;15.43;;;;;;;9.56;100.00;99459.34;5021415;28;20520;-78
2022/04/30 04:29:35;;;;;;;28.05;15.27;;;;;;;9.51;100.00;99459.81;5024892;28;20064;-78
2022/04/30 04:32:02;;;;;;;27.63;14.65;;;;;;;9.61;100.00;99464.25;5026438;28;20141;-78
2022/04/30 04:34:28;;;;;;;28.38;15.20;;;;;;;9.39;100.00;99447.63;5025804;28;20075;-78
2022/04/30 04:36:55;;;;;;;31.88;14.40;;;;;;;9.57;100.00;99463.72;5025874;28;20037;-78
2022/04/30 04:39:21;;;;;;;35.45;15.93;;;;;;;9.62;100.00;99458.66;5035701;28;20054;-77
2022/04/30 04:41:48;;;;;;;29.08;15.65;;;;;;;9.49;100.00;99451.00;5031601;28;20132;-78
2022/04/30 04:44:16;;;;;;;32.17;15.38;;;;;;;9.57;100.00;99456.44;5027105;28;20052;-78
2022/04/30 04:46:43;;;;;;;30.52;16.52;;;;;;;9.51;100.00;99454.41;5031438;28;20454;-78
2022/04/30 04:49:10;;;;;;;29.92;17.02;;;;;;;9.70;100.00;99471.34;5026552;28;20111;-78
2022/04/30 04:51:37;;;;;;;36.97;18.08;;;;;;;9.56;100.00;99440.34;5030443;28;20133;-78
2022/04/30 04:54:04;;;;;;;28.75;16.95;;;;;;;9.43;100.00;99429.16;5029854;28;20561;-78
2022/04/30 04:56:31;;;;;;;31.23;17.63;;;;;;;9.75;100.00;99455.38;5024527;28;20064;-78
2022/04/30 04:58:58;;;;;;;34.90;16.95;;;;;;;9.63;100.00;99435.06;5029354;28;20053;-78
2022/04/30 05:01:26;;;;;;;36.00;17.00;;;;;;;9.67;100.00;99456.25;5030806;28;20049;-77
2022/04/30 05:03:53;;;;;;;33.17;18.58;;;;;;;9.76;100.00;99456.25;5030179;28;20485;-78
2022/04/30 05:06:19;;;;;;;29.00;15.38;;;;;;;9.83;100.00;99470.81;5030974;28;20068;-78
2022/04/30 05:08:46;;;;;;;30.83;16.77;;;;;;;9.80;100.00;99452.16;5030104;28;20057;-78
2022/04/30 05:11:12;;;;;;;27.92;16.23;;;;;;;9.82;100.00;99452.84;5030764;28;20108;-78
2022/04/30 05:13:39;;;;;;;34.10;16.80;;;;;;;9.87;100.00;99464.03;5030620;28;20049;-78
2022/04/30 05:16:06;;;;;;;28.75;15.82;;;;;;;10.05;100.00;99482.81;5024190;28;20045;-78
2022/04/30 05:18:34;;;;;;;33.45;15.80;;;;;;;10.01;100.00;99482.34;5030516;28;20072;-77
2022/04/30 05:21:01;;;;;;;26.10;14.75;;;;;;;9.93;100.00;99468.75;5028969;28;20060;-77
2022/04/30 05:23:27;;;;;;;28.98;16.15;;;;;;;10.08;100.00;99491.47;5029446;28;20076;-79
2022/04/30 05:25:54;;;;;;;29.52;14.60;;;;;;;10.00;100.00;99469.78;5031124;28;20053;-78
2022/04/30 05:28:21;;;;;;;34.70;16.38;;;;;;;10.24;100.00;99512.31;5029208;28;20136;-76
2022/04/30 05:30:47;;;;;;;34.80;16.38;;;;;;;10.18;100.00;99487.72;5027800;28;20088;-78
2022/04/30 05:33:13;;;;;;;31.70;16.80;;;;;;;10.18;100.00;99468.72;5022031;28;20053;-78
2022/04/30 05:35:42;;;;;;;27.67;16.75;;;;;;;10.31;100.00;99489.88;5031144;28;20049;-78
2022/04/30 05:38:08;;;;;;;28.73;16.48;;;;;;;10.39;100.00;99487.19;5030125;28;20057;-78
2022/04/30 05:40:35;;;;;;;33.40;17.38;;;;;;;10.50;100.00;99499.53;5031018;28;20049;-79
2022/04/30 05:43:01;;;;;;;25.60;16.48;;;;;;;10.30;100.00;99474.59;5030718;28;20056;-79
2022/04/30 05:45:28;;;;;;;35.67;17.15;;;;;;;10.37;100.00;99487.34;5029740;28;20053;-76
2022/04/30 05:47:54;;;;;;;31.27;17.35;;;;;;;10.68;100.00;99515.59;5027045;28;20441;-78
2022/04/30 05:50:21;;;;;;;33.22;17.60;;;;;;;10.65;100.00;99518.66;5021118;28;20042;-76
2022/04/30 05:52:49;;;;;;;31.23;16.92;;;;;;;10.43;100.00;99483.94;5018153;28;20065;-76
2022/04/30 05:55:16;;;;;;;39.22;18.10;;;;;;;10.61;100.00;99489.13;5025415;28;20052;-77
2022/04/30 05:57:42;;;;;;;34.42;17.15;;;;;;;10.73;100.00;99521.34;5027030;28;20052;-77
2022/04/30 06:00:10;;;;;;;32.33;16.40;;;;;;;10.60;100.00;99492.03;5028966;28;20061;-76
2022/04/30 06:02:37;;;;;;;33.60;18.00;;;;;;;10.62;100.00;99504.38;5028638;28;20489;-77
2022/04/30 06:05:03;;;;;;;23.58;16.30;;;;;;;10.65;100.00;99496.91;5033541;28;20045;-77
2022/04/30 06:07:31;;;;;;;34.63;17.08;;;;;;;10.84;100.00;99520.97;5030509;28;20386;-79
2022/04/30 06:09:59;;;;;;;24.80;16.77;;;;;;;10.87;100.00;99527.88;5034499;28;20049;-76
2022/04/30 06:12:25;;;;;;;31.63;17.50;;;;;;;10.90;100.00;99517.53;5033624;28;20481;-77
2022/04/30 06:14:52;;;;;;;30.95;17.02;;;;;;;10.88;100.00;99529.59;5034340;28;20041;-77
2022/04/30 06:17:18;;;;;;;30.52;16.40;;;;;;;10.86;100.00;99537.09;5034261;28;20053;-78
2022/04/30 06:19:45;;;;;;;29.45;16.88;;;;;;;10.75;100.00;99527.47;5033076;28;20049;-77
2022/04/30 06:22:11;;;;;;;27.45;16.70;;;;;;;10.67;100.00;99533.75;5028118;28;20593;-77
2022/04/30 06:24:38;;;;;;;37.42;17.27;;;;;;;10.65;100.00;99510.50;5031762;28;20176;-79
2022/04/30 06:27:08;;;;;;;34.35;16.60;;;;;;;10.68;100.00;99510.16;5031493;28;20489;-79
2022/04/30 06:29:34;;;;;;;;;;;;;;;10.87;100.00;99538.78;5035305;28;20057;-77
2022/04/30 06:32:01;;;;;;;31.63;14.95;;;;;;;11.05;100.00;99539.38;5029783;28;19921;-77
2022/04/30 06:34:27;;;;;;;32.90;16.40;;;;;;;10.87;100.00;99511.56;5031996;28;20053;-79
2022/04/30 06:36:54;;;;;;;32.88;16.30;;;;;;;10.94;100.00;99521.59;5035505;28;20038;-77
2022/04/30 06:39:21;;;;;;;28.95;17.23;;;;;;;10.98;100.00;99519.34;5030848;28;20053;-79
2022/04/30 06:41:47;;;;;;;36.17;17.27;;;;;;;10.83;100.00;99512.97;5028921;28;20045;-78
2022/04/30 06:44:15;;;;;;;36.03;18.13;;;;;;;11.18;100.00;99541.50;5032155;28;20081;-77
2022/04/30 06:46:45;;;;;;;29.17;16.52;;;;;;;11.05;100.00;99519.47;5029346;28;20052;-77
2022/04/30 06:49:11;;;;;;;33.20;17.38;;;;;;;11.13;100.00;99519.44;5032064;28;20136;-77
2022/04/30 06:51:38;;;;;;;29.70;15.93;;;;;;;11.28;100.00;99539.38;5030969;28;20050;-77
2022/04/30 06:59:37;;;;;;;28.67;16.08;;;;;;;11.35;100.00;99506.88;5032865;28;20064;-76
2022/04/30 07:02:06;;;;;;;25.40;15.63;;;;;;;11.43;100.00;99531.28;5028882;28;20092;-79
2022/04/30 07:04:32;;;;;;;23.73;15.27;;;;;;;11.56;100.00;99532.56;5024729;28;20081;-77
2022/04/30 07:06:59;;;;;;;30.80;17.15;;;;;;;11.51;100.00;99525.78;5033331;28;20045;-78
2022/04/30 07:09:28;;;;;;;27.73;14.88;;;;;;;11.48;100.00;99498.06;5032707;28;20412;-79
2022/04/30 07:11:54;;;;;;;25.95;14.23;;;;;;;11.56;100.00;99513.50;5032971;28;20050;-78
2022/04/30 07:14:21;;;;;;;31.88;16.55;;;;;;;11.91;100.00;99541.97;5032567;28;20058;-79
2022/04/30 07:16:49;;;;;;;27.08;15.35;;;;;;;11.91;100.00;99543.81;5032647;28;20050;-76
2022/04/30 07:19:15;;;;;;;28.15;14.40;;;;;;;11.82;100.00;99543.06;5030624;28;20045;-76
2022/04/30 07:21:42;;;;;;;28.58;15.45;;;;;;;11.75;100.00;99542.94;5032363;28;20041;-77
2022/04/30 07:24:08;;;;;;;27.98;13.68;;;;;;;11.66;100.00;99538.59;5031824;28;20068;-77
2022/04/30 07:26:35;;;;;;;27.02;15.15;;;;;;;11.87;100.00;99537.91;5027834;28;20042;-77
2022/04/30 07:29:02;;;;;;;24.95;13.75;;;;;;;12.06;100.00;99535.72;5032740;28;20125;-77
2022/04/30 07:31:28;;;;;;;29.05;14.68;;;;;;;12.03;100.00;99526.06;5032453;28;20065;-77
2022/04/30 07:33:56;;;;;;;23.13;14.95;;;;;;;11.83;100.00;99517.50;5030849;28;20057;-77
2022/04/30 07:36:23;;;;;;;27.33;14.13;;;;;;;12.01;100.00;99519.94;5024543;28;20049;-78
2022/04/30 07:38:49;;;;;;;22.75;13.80;;;;;;;11.89;100.00;99524.09;5027638;28;20057;-78
2022/04/30 07:41:16;;;;;;;21.35;13.27;;;;;;;11.85;100.00;99550.88;5024454;28;20053;-78
2022/04/30 07:43:42;;;;;;;25.73;14.30;;;;;;;11.81;100.00;99534.03;5029426;28;20056;-78
2022/04/30 07:46:09;;;;;;;21.73;14.50;;;;;;;11.82;100.00;99549.38;5028049;28;20053;-78
2022/04/30 07:48:35;;;;;;;27.08;14.32;;;;;;;11.77;100.00;99542.75;5030153;28;20041;-78
2022/04/30 07:51:04;;;;;;;23.75;14.32;;;;;;;11.72;100.00;99534.31;5030291;28;20053;-78
2022/04/30 07:53:30;;;;;;;22.02;12.93;;;;;;;11.48;100.00;99508.97;5031601;28;20462;-78
2022/04/30 07:55:57;;;;;;;20.45;13.48;;;;;;;11.67;100.00;99541.16;5025684;28;20051;-78
2022/04/30 07:58:25;;;;;;;29.02;13.95;;;;;;;11.65;100.00;99521.44;5032156;28;20052;-78
2022/04/30 08:00:51;;;;;;;27.23;14.18;;;;;;;11.68;100.00;99544.69;5022311;28;20053;-79
2022/04/30 08:03:18;;;;;;;24.17;13.75;;;;;;;11.79;100.00;99557.91;5029795;28;20049;-78
2022/04/30 08:05:44;;;;;;;21.52;13.23;;;;;;;11.60;100.00;99534.72;5030010;28;20052;-78
2022/04/30 08:08:12;;;;;;;24.42;13.25;;;;;;;11.89;100.00;99559.53;5025578;28;21602;-77
2022/04/30 08:10:39;;;;;;;22.90;14.18;;;;;;;11.71;100.00;99549.78;5021821;28;20057;-78
2022/04/30 08:13:06;;;;;;;22.15;12.93;;;;;;;11.68;100.00;99551.03;5027526;28;20401;-77
2022/04/30 08:15:33;;;;;;;20.77;12.65;;;;;;;11.71;100.00;99570.72;5033356;28;20132;-76
2022/04/30 08:18:00;;;;;;;22.95;12.70;;;;;;;11.94;100.00;99568.00;5032851;28;20081;-77
2022/04/30 08:20:26;;;;;;;23.90;12.48;;;;;;;11.99;100.00;99566.44;5025927;28;20474;-77
2022/04/30 08:22:53;;;;;;;18.52;11.40;;;;;;;12.10;100.00;99564.31;5031919;28;20049;-77
2022/04/30 08:25:21;;;;;;;19.05;12.75;;;;;;;12.33;100.00;99569.69;5029987;28;20129;-76
2022/04/30 08:27:48;;;;;;;20.05;11.77;;;;;;;12.27;100.00;99549.50;5030720;28;20080;-77
2022/04/30 08:30:15;;;;;;;17.42;11.80;;;;;;;12.44;100.00;99549.31;5022407;28;20413;-78
2022/04/30 08:32:41;;;;;;;19.75;12.05;;;;;;;12.43;100.00;99548.44;5029229;28;20059;-78
2022/04/30 08:35:08;;;;;;;21.25;11.35;;;;;;;12.60;100.00;99554.59;5029870;28;20425;-78
2022/04/30 08:37:35;;;;;;;19.10;11.75;;;;;;;12.87;100.00;99549.44;5024655;28;20045;-78
2022/04/30 08:40:02;;;;;;;21.08;10.80;;;;;;;12.80;100.00;99570.38;5029549;28;20049;-78
2022/04/30 08:42:31;;;;;;;16.92;11.65;;;;;;;12.92;100.00;99552.47;5022679;28;20061;-78
2022/04/30 08:44:58;;;;;;;17.92;11.40;;;;;;;12.63;100.00;99576.03;5030978;28;20056;-78
2022/04/30 08:47:24;;;;;;;23.95;12.98;;;;;;;12.63;100.00;99556.06;5029131;28;20413;-78
2022/04/30 08:49:53;;;;;;;18.33;11.73;;;;;;;12.64;100.00;99555.88;5029713;28;20048;-78
2022/04/30 08:52:19;;;;;;;20.52;12.85;;;;;;;12.64;100.00;99557.75;5022683;28;20059;-78
2022/04/30 08:54:46;;;;;;;22.67;12.32;;;;;;;12.97;100.00;99560.91;5024149;28;20045;-78
2022/04/30 08:57:14;;;;;;;19.98;12.32;;;;;;;12.83;100.00;99559.91;5029974;28;20053;-78
2022/04/30 08:59:42;;;;;;;15.70;9.77;;;;;;;12.80;100.00;99570.38;5027216;28;20095;-79
2022/04/30 09:02:11;;;;;;;17.02;9.98;;;;;;;12.87;100.00;99563.97;5027354;28;20051;-78
2022/04/30 09:04:43;;;;;;;21.40;11.23;;;;;;;12.58;100.00;99570.25;5029033;28;20037;-78
2022/04/30 09:07:15;;;;;;;19.40;11.13;;;;;;;12.77;100.00;99557.09;5031589;28;20061;-78
2022/04/30 09:09:43;;;;;;;17.00;10.77;;;;;;;12.47;100.00;99555.22;5031213;28;20483;-78
2022/04/30 09:12:13;;;;;;;15.20;10.68;;;;;;;12.63;100.00;99550.59;5018431;28;20056;-78
2022/04/30 09:14:42;;;;;;;;;;;;;;;12.82;100.00;99571.84;5017539;28;20308;-78
2022/04/30 09:17:11;;;;;;;16.13;10.00;;;;;;;12.85;98.75;99552.38;5021852;28;20369;-78
2022/04/30 09:19:51;;;;;;;15.52;9.75;;;;;;;12.46;100.00;99547.22;5031537;28;20334;-77
2022/04/30 09:22:27;;;;;;;17.27;9.88;;;;;;;12.42;100.00;99568.59;5023680;28;20053;-78
2022/04/30 09:24:54;;;;;;;14.05;9.50;;;;;;;12.25;100.00;99567.88;5023597;28;20051;-78
2022/04/30 09:27:22;;;;;;;15.65;9.00;;;;;;;12.50;100.00;99567.66;5027950;28;20045;-78
2022/04/30 09:29:51;;;;;;;14.02;9.20;;;;;;;12.63;100.00;99572.44;5029974;28;20503;-78
2022/04/30 09:32:19;;;;;;;14.27;8.37;;;;;;;12.48;100.00;99577.88;5031683;28;20052;-78
2022/04/30 09:37:45;;;;;;;15.57;9.25;;;;;;;12.47;100.00;99574.31;5019878;28;20057;-78
2022/04/30 09:40:23;;;;;;;13.70;8.60;;;;;;;12.58;100.00;99567.53;5021759;28;20049;-78
2022/04/30 09:42:50;;;;;;;10.50;7.82;;;;;;;12.60;100.00;99576.41;5029118;28;20061;-78
2022/04/30 09:45:26;;;;;;;10.02;7.15;;;;;;;12.26;100.00;99566.03;5024904;28;20056;-78
2022/04/30 09:47:54;;;;;;;10.65;7.47;;;;;;;12.35;100.00;99573.91;5023609;28;20041;-78
2022/04/30 09:55:53;;;;;;;9.10;6.65;;;;;;;11.72;100.00;99554.22;5027319;28;20048;-77
2022/04/30 09:58:23;;;;;;;10.27;7.70;;;;;;;11.82;100.00;99556.69;5031270;28;20060;-78
2022/04/30 10:00:54;;;;;;;10.85;7.60;;;;;;;11.79;100.00;99567.97;5024632;28;20064;-78
2022/04/30 10:03:25;;;;;;;10.68;7.75;;;;;;;11.92;100.00;99561.88;5025301;28;20053;-78
2022/04/30 10:05:58;;;;;;;10.65;7.15;;;;;;;11.72;100.00;99562.38;5030205;28;20042;-78
2022/04/30 10:08:25;;;;;;;10.32;7.82;;;;;;;11.80;100.00;99572.34;5029221;28;20064;-77
2022/04/30 10:10:59;;;;;;;10.65;8.20;;;;;;;11.68;100.00;99566.50;5013977;28;20049;-78
2022/04/30 10:13:32;;;;;;;10.18;8.07;;;;;;;11.67;100.00;99576.53;5025495;28;20059;-78
2022/04/30 10:16:02;;;;;;;12.68;8.20;;;;;;;11.62;100.00;99559.91;5027698;28;20056;-78
2022/04/30 10:18:34;;;;;;;14.18;9.13;;;;;;;11.62;100.00;99565.38;5030128;28;20058;-78
2022/04/30 10:21:02;;;;;;;12.65;9.20;;;;;;;11.42;100.00;99562.25;5028301;28;20080;-77
2022/04/30 10:23:29;;;;;;;12.23;8.93;;;;;;;11.42;100.00;99577.75;5020604;28;20055;-77
2022/04/30 10:26:07;;;;;;;10.80;8.00;;;;;;;11.30;100.00;99580.88;5023121;28;20556;-77
2022/04/30 10:28:33;;;;;;;9.93;6.72;;;;;;;11.28;100.00;99560.31;5026016;28;20050;-77
2022/04/30 10:31:03;;;;;;;11.02;6.95;;;;;;;11.25;100.00;99587.91;5027443;28;20129;-77
2022/04/30 10:33:30;;;;;;;9.00;6.22;;;;;;;11.06;100.00;99579.13;5027236;28;20049;-77
2022/04/30 10:36:05;;;;;;;10.40;6.80;;;;;;;11.05;100.00;99547.53;5023468;28;20512;-77
2022/04/30 10:38:32;;;;;;;10.02;7.03;;;;;;;10.97;100.00;99559.31;5022654;28;20041;-77
2022/04/30 10:41:00;;;;;;;8.68;6.63;;;;;;;11.08;100.00;99558.06;5026978;28;20466;-77
2022/04/30 10:43:31;;;;;;;8.20;5.82;;;;;;;11.09;100.00;99557.00;5026986;28;20670;-77
2022/04/30 10:45:59;;;;;;;8.63;5.78;;;;;;;10.92;100.00;99567.16;5031036;28;20068;-77
2022/04/30 10:48:27;;;;;;;7.05;6.00;;;;;;;10.87;100.00;99550.53;5025554;28;20049;-76
2022/04/30 10:51:05;;;;;;;7.20;5.68;;;;;;;10.95;100.00;99583.09;5025515;28;20042;-77
2022/04/30 10:53:33;;;;;;;9.45;5.75;;;;;;;10.94;100.00;99588.72;5031966;28;20543;-76
2022/04/30 10:56:01;;;;;;;12.07;6.78;;;;;;;10.85;100.00;99578.91;5032192;28;20053;-76
2022/04/30 10:58:30;;;;;;;10.27;4.82;;;;;;;10.81;100.00;99589.31;5033043;28;20448;-76
2022/04/30 11:00:57;;;;;;;7.28;5.50;;;;;;;10.87;100.00;99575.00;5032721;28;20053;-76
2022/04/30 11:03:28;;;;;;;7.15;5.57;;;;;;;10.91;100.00;99586.38;5032228;28;20485;-76
2022/04/30 11:05:55;;;;;;;8.75;5.10;;;;;;;10.86;100.00;99572.47;5029820;28;20049;-76
2022/04/30 11:08:21;;;;;;;9.23;5.20;;;;;;;10.88;100.00;99552.19;5032291;28;20049;-77
2022/04/30 11:10:52;;;;;;;5.60;4.60;;;;;;;10.94;100.00;99553.38;5032143;28;20053;-76
2022/04/30 11:13:19;;;;;;;7.78;5.70;;;;;;;10.98;100.00;99566.44;5031958;28;20128;-77
2022/04/30 11:15:45;;;;;;;5.68;4.60;;;;;;;10.88;100.00;99564.97;5032349;28;20057;-76
2022/04/30 11:18:13;;;;;;;7.75;5.20;;;;;;;11.14;100.00;99570.09;5032627;28;20384;-77
2022/04/30 11:20:41;;;;;;;6.50;4.55;;;;;;;11.01;100.00;99550.78;5026940;28;20077;-77
2022/04/30 11:23:08;;;;;;;5.97;4.55;;;;;;;11.16;100.00;99557.16;5030773;28;20057;-77
2022/04/30 11:25:35;;;;;;;6.32;4.93;;;;;;;10.89;100.00;99540.31;5031348;28;20528;-77
2022/04/30 11:28:05;;;;;;;6.60;4.93;;;;;;;11.05;100.00;99565.72;5031822;28;20141;-77
2022/04/30 11:30:35;;;;;;;9.77;5.07;;;;;;;11.02;100.00;99568.78;5032624;28;20221;-77
2022/04/30 11:33:02;;;;;;;;;;;;;;;11.16;100.00;99565.31;5031646;28;20331;-77
2022/04/30 11:35:28;;;;;;;4.93;4.20;;;;;;;11.12;100.00;99572.97;5031778;28;19921;-77
2022/04/30 11:37:56;;;;;;;4.93;4.10;;;;;;;11.01;100.00;99556.25;5031842;28;20053;-77
2022/04/30 11:40:23;;;;;;;6.38;4.43;;;;;;;11.14;100.00;99561.91;5025906;28;20057;-77
2022/04/30 11:42:55;;;;;;;4.13;3.53;;;;;;;10.94;100.00;99569.69;5030612;28;20045;-77
2022/04/30 11:45:24;;;;;;;4.90;3.70;;;;;;;10.77;100.00;99530.84;5032461;28;20041;-77
2022/04/30 11:47:51;;;;;;;5.20;4.25;;;;;;;10.74;100.00;99528.47;5024888;28;20049;-77
2022/04/30 11:50:18;;;;;;;11.63;3.90;;;;;;;10.74;100.00;99539.38;5031458;28;20052;-77
2022/04/30 11:52:46;;;;;;;6.15;4.55;;;;;;;10.84;100.00;99537.28;5031185;28;20045;-77
2022/04/30 11:55:15;;;;;;;4.15;3.15;;;;;;;10.90;100.00;99541.13;5026602;28;20053;-77
2022/04/30 11:57:43;;;;;;;4.03;3.40;;;;;;;10.79;100.00;99551.41;5026755;28;20148;-77